sensor_id;sensor_type;location;lat;lon;timestamp;temperature;humidity
64843;DHT22;51310;52.198;5.422;2023-04-10T00:02:21;7.60;99.90
64843;DHT22;51310;52.198;5.422;2023-04-10T00:04:47;7.60;99.90
64843;DHT22;51310;52.198;5.422;2023-04-10T00:07:13;7.50;99.90
64843;DHT22;51310;52.198;5.422;2023-04-10T00:09:39;7.50;99.90
64843;DHT22;51310;52.198;5.422;2023-04-10T00:12:05;7.50;99.90
64843;DHT22;51310;52.198;5.422;2023-04-10T00:14:31;7.50;99.90
64843;DHT22;51310;52.198;5.422;2023-04-10T00:16:57;7.50;99.90
64843;DHT22;51310;52.198;5.422;2023-04-10T00:19:23;7.50;99.90
64843;DHT22;51310;52.198;5.422;2023-04-10T00:21:48;7.50;99.90
64843;DHT22;51310;52.198;5.422;2023-04-10T00:24:14;7.50;99.90
64843;DHT22;51310;52.198;5.422;2023-04-10T00:26:40;7.50;99.90
64843;DHT22;51310;52.198;5.422;2023-04-10T00:29:05;7.50;99.90
64843;DHT22;51310;52.198;5.422;2023-04-10T00:31:32;7.50;99.90
64843;DHT22;51310;52.198;5.422;2023-04-10T00:33:58;7.50;99.90
64843;DHT22;51310;52.198;5.422;2023-04-10T00:36:23;7.50;99.90
64843;DHT22;51310;52.198;5.422;2023-04-10T00:38:51;7.50;99.90
64843;DHT22;51310;52.198;5.422;2023-04-10T00:41:16;7.50;99.90
64843;DHT22;51310;52.198;5.422;2023-04-10T00:43:43;7.50;99.90
64843;DHT22;51310;52.198;5.422;2023-04-10T00:46:10;7.50;99.90
64843;DHT22;51310;52.198;5.422;2023-04-10T00:48:36;7.50;99.90
64843;DHT22;51310;52.198;5.422;2023-04-10T00:51:03;7.50;99.90
64843;DHT22;51310;52.198;5.422;2023-04-10T00:53:31;7.40;99.90
64843;DHT22;51310;52.198;5.422;2023-04-10T00:55:57;7.40;99.90
64843;DHT22;51310;52.198;5.422;2023-04-10T00:58:23;7.40;99.90
64843;DHT22;51310;52.198;5.422;2023-04-10T01:00:50;7.40;99.90
64843;DHT22;51310;52.198;5.422;2023-04-10T01:03:18;7.40;99.90
64843;DHT22;51310;52.198;5.422;2023-04-10T01:06:03;7.30;99.90
64843;DHT22;51310;52.198;5.422;2023-04-10T01:17:06;7.20;99.90
64843;DHT22;51310;52.198;5.422;2023-04-10T01:19:56;7.20;99.90
64843;DHT22;51310;52.198;5.422;2023-04-10T01:22:35;7.20;99.90
64843;DHT22;51310;52.198;5.422;2023-04-10T01:25:48;7.10;99.90
64843;DHT22;51310;52.198;5.422;2023-04-10T01:32:06;7.10;99.90
64843;DHT22;51310;52.198;5.422;2023-04-10T01:34:37;7.00;99.90
64843;DHT22;51310;52.198;5.422;2023-04-10T01:37:19;7.00;99.90
64843;DHT22;51310;52.198;5.422;2023-04-10T01:39:50;7.00;99.90
64843;DHT22;51310;52.198;5.422;2023-04-10T01:42:24;7.00;99.90
64843;DHT22;51310;52.198;5.422;2023-04-10T01:44:53;7.00;99.90
64843;DHT22;51310;52.198;5.422;2023-04-10T01:47:23;7.00;99.90
64843;DHT22;51310;52.198;5.422;2023-04-10T01:49:50;7.00;99.90
64843;DHT22;51310;52.198;5.422;2023-04-10T01:52:17;7.00;99.90
64843;DHT22;51310;52.198;5.422;2023-04-10T01:54:46;6.90;99.90
64843;DHT22;51310;52.198;5.422;2023-04-10T01:57:14;7.00;99.90
64843;DHT22;51310;52.198;5.422;2023-04-10T01:59:41;7.00;99.90
64843;DHT22;51310;52.198;5.422;2023-04-10T02:02:07;7.00;99.90
64843;DHT22;51310;52.198;5.422;2023-04-10T02:04:35;7.00;99.90
64843;DHT22;51310;52.198;5.422;2023-04-10T02:07:15;7.00;99.90
64843;DHT22;51310;52.198;5.422;2023-04-10T02:09:57;7.00;99.90
64843;DHT22;51310;52.198;5.422;2023-04-10T02:12:33;7.00;99.90
64843;DHT22;51310;52.198;5.422;2023-04-10T02:15:01;7.00;99.90
64843;DHT22;51310;52.198;5.422;2023-04-10T02:17:31;7.00;99.90
64843;DHT22;51310;52.198;5.422;2023-04-10T02:19:59;7.00;99.90
64843;DHT22;51310;52.198;5.422;2023-04-10T02:22:25;7.00;99.90
64843;DHT22;51310;52.198;5.422;2023-04-10T02:24:52;7.10;99.90
64843;DHT22;51310;52.198;5.422;2023-04-10T02:27:32;7.00;99.90
64843;DHT22;51310;52.198;5.422;2023-04-10T02:30:00;7.10;99.90
64843;DHT22;51310;52.198;5.422;2023-04-10T02:32:28;7.10;99.90
64843;DHT22;51310;52.198;5.422;2023-04-10T02:34:54;7.10;99.90
64843;DHT22;51310;52.198;5.422;2023-04-10T02:37:21;7.10;99.90
64843;DHT22;51310;52.198;5.422;2023-04-10T02:39:47;7.10;99.90
64843;DHT22;51310;52.198;5.422;2023-04-10T02:42:13;7.20;99.90
64843;DHT22;51310;52.198;5.422;2023-04-10T02:44:39;7.10;99.90
64843;DHT22;51310;52.198;5.422;2023-04-10T02:47:05;7.20;99.90
64843;DHT22;51310;52.198;5.422;2023-04-10T02:49:32;7.20;99.90
64843;DHT22;51310;52.198;5.422;2023-04-10T02:52:01;7.20;99.90
64843;DHT22;51310;52.198;5.422;2023-04-10T02:54:27;7.20;99.90
64843;DHT22;51310;52.198;5.422;2023-04-10T02:56:53;7.20;99.90
64843;DHT22;51310;52.198;5.422;2023-04-10T02:59:19;7.10;99.90
64843;DHT22;51310;52.198;5.422;2023-04-10T03:01:45;7.10;99.90
64843;DHT22;51310;52.198;5.422;2023-04-10T03:04:11;7.10;99.90
64843;DHT22;51310;52.198;5.422;2023-04-10T03:06:37;7.00;99.90
64843;DHT22;51310;52.198;5.422;2023-04-10T03:09:03;7.00;99.90
64843;DHT22;51310;52.198;5.422;2023-04-10T03:11:29;7.00;99.90
64843;DHT22;51310;52.198;5.422;2023-04-10T03:13:55;7.00;99.90
64843;DHT22;51310;52.198;5.422;2023-04-10T03:16:22;7.00;99.90
64843;DHT22;51310;52.198;5.422;2023-04-10T03:18:48;7.00;99.90
64843;DHT22;51310;52.198;5.422;2023-04-10T03:21:14;7.00;99.90
64843;DHT22;51310;52.198;5.422;2023-04-10T03:23:40;7.00;99.90
64843;DHT22;51310;52.198;5.422;2023-04-10T03:26:06;7.00;99.90
64843;DHT22;51310;52.198;5.422;2023-04-10T03:28:32;7.00;99.90
64843;DHT22;51310;52.198;5.422;2023-04-10T03:31:01;7.00;99.90
64843;DHT22;51310;52.198;5.422;2023-04-10T03:33:28;7.00;99.90
64843;DHT22;51310;52.198;5.422;2023-04-10T03:35:54;7.00;99.90
64843;DHT22;51310;52.198;5.422;2023-04-10T03:38:21;7.00;99.90
64843;DHT22;51310;52.198;5.422;2023-04-10T03:40:47;6.90;99.90
64843;DHT22;51310;52.198;5.422;2023-04-10T03:43:13;6.90;99.90
64843;DHT22;51310;52.198;5.422;2023-04-10T03:45:39;6.90;99.90
64843;DHT22;51310;52.198;5.422;2023-04-10T03:48:05;6.90;99.90
64843;DHT22;51310;52.198;5.422;2023-04-10T03:50:30;6.90;99.90
64843;DHT22;51310;52.198;5.422;2023-04-10T03:52:56;6.80;99.90
64843;DHT22;51310;52.198;5.422;2023-04-10T03:55:22;6.80;99.90
64843;DHT22;51310;52.198;5.422;2023-04-10T03:57:48;6.80;99.90
64843;DHT22;51310;52.198;5.422;2023-04-10T04:00:15;6.70;99.90
64843;DHT22;51310;52.198;5.422;2023-04-10T04:02:41;6.70;99.90
64843;DHT22;51310;52.198;5.422;2023-04-10T04:05:07;6.70;99.90
64843;DHT22;51310;52.198;5.422;2023-04-10T04:07:33;6.70;99.90
64843;DHT22;51310;52.198;5.422;2023-04-10T04:09:59;6.60;99.90
64843;DHT22;51310;52.198;5.422;2023-04-10T04:12:26;6.70;99.90
64843;DHT22;51310;52.198;5.422;2023-04-10T04:14:51;6.70;99.90
64843;DHT22;51310;52.198;5.422;2023-04-10T04:17:17;6.60;99.90
64843;DHT22;51310;52.198;5.422;2023-04-10T04:19:43;6.60;99.90
64843;DHT22;51310;52.198;5.422;2023-04-10T04:22:10;6.60;99.90
64843;DHT22;51310;52.198;5.422;2023-04-10T04:24:36;6.60;99.90
64843;DHT22;51310;52.198;5.422;2023-04-10T04:27:01;6.60;99.90
64843;DHT22;51310;52.198;5.422;2023-04-10T04:29:27;6.60;99.90
64843;DHT22;51310;52.198;5.422;2023-04-10T04:31:53;6.60;99.90
64843;DHT22;51310;52.198;5.422;2023-04-10T04:34:19;6.60;99.90
64843;DHT22;51310;52.198;5.422;2023-04-10T04:36:45;6.60;99.90
64843;DHT22;51310;52.198;5.422;2023-04-10T04:39:10;6.60;99.90
64843;DHT22;51310;52.198;5.422;2023-04-10T04:41:36;6.60;99.90
64843;DHT22;51310;52.198;5.422;2023-04-10T04:44:03;6.60;99.90
64843;DHT22;51310;52.198;5.422;2023-04-10T04:46:29;6.60;99.90
64843;DHT22;51310;52.198;5.422;2023-04-10T04:48:55;6.50;99.90
64843;DHT22;51310;52.198;5.422;2023-04-10T04:51:20;6.50;99.90
64843;DHT22;51310;52.198;5.422;2023-04-10T04:53:46;6.60;99.90
64843;DHT22;51310;52.198;5.422;2023-04-10T04:56:12;6.60;99.90
64843;DHT22;51310;52.198;5.422;2023-04-10T04:58:38;6.50;99.90
64843;DHT22;51310;52.198;5.422;2023-04-10T05:01:03;6.50;99.90
64843;DHT22;51310;52.198;5.422;2023-04-10T05:03:29;6.50;99.90
64843;DHT22;51310;52.198;5.422;2023-04-10T05:05:56;6.50;99.90
64843;DHT22;51310;52.198;5.422;2023-04-10T05:08:22;6.50;99.90
64843;DHT22;51310;52.198;5.422;2023-04-10T05:10:48;6.40;99.90
64843;DHT22;51310;52.198;5.422;2023-04-10T05:13:14;6.40;99.90
64843;DHT22;51310;52.198;5.422;2023-04-10T05:15:44;6.40;99.90
64843;DHT22;51310;52.198;5.422;2023-04-10T05:18:10;6.40;99.90
64843;DHT22;51310;52.198;5.422;2023-04-10T05:20:37;6.40;99.90
64843;DHT22;51310;52.198;5.422;2023-04-10T05:23:04;6.40;99.90
64843;DHT22;51310;52.198;5.422;2023-04-10T05:25:31;6.40;99.90
64843;DHT22;51310;52.198;5.422;2023-04-10T05:27:57;6.40;99.90
64843;DHT22;51310;52.198;5.422;2023-04-10T05:30:23;6.50;99.90
64843;DHT22;51310;52.198;5.422;2023-04-10T05:32:49;6.60;99.90
64843;DHT22;51310;52.198;5.422;2023-04-10T05:35:14;6.60;99.90
64843;DHT22;51310;52.198;5.422;2023-04-10T05:37:40;6.70;99.90
64843;DHT22;51310;52.198;5.422;2023-04-10T05:40:07;6.80;99.90
64843;DHT22;51310;52.198;5.422;2023-04-10T05:42:33;6.80;99.90
64843;DHT22;51310;52.198;5.422;2023-04-10T05:44:58;6.90;99.90
64843;DHT22;51310;52.198;5.422;2023-04-10T05:47:24;6.90;99.90
64843;DHT22;51310;52.198;5.422;2023-04-10T05:49:50;7.00;99.90
64843;DHT22;51310;52.198;5.422;2023-04-10T05:52:16;7.00;99.90
64843;DHT22;51310;52.198;5.422;2023-04-10T05:54:41;7.00;99.90
64843;DHT22;51310;52.198;5.422;2023-04-10T05:57:07;7.20;99.90
64843;DHT22;51310;52.198;5.422;2023-04-10T05:59:33;7.20;99.90
64843;DHT22;51310;52.198;5.422;2023-04-10T06:01:58;7.30;99.90
64843;DHT22;51310;52.198;5.422;2023-04-10T06:04:25;7.40;99.90
64843;DHT22;51310;52.198;5.422;2023-04-10T06:06:51;7.40;99.90
64843;DHT22;51310;52.198;5.422;2023-04-10T06:09:16;7.50;99.90
64843;DHT22;51310;52.198;5.422;2023-04-10T06:11:42;7.50;99.90
64843;DHT22;51310;52.198;5.422;2023-04-10T06:14:08;7.60;99.90
64843;DHT22;51310;52.198;5.422;2023-04-10T06:16:33;7.60;99.90
64843;DHT22;51310;52.198;5.422;2023-04-10T06:18:59;7.70;99.90
64843;DHT22;51310;52.198;5.422;2023-04-10T06:21:25;7.80;99.90
64843;DHT22;51310;52.198;5.422;2023-04-10T06:23:51;7.80;99.90
64843;DHT22;51310;52.198;5.422;2023-04-10T06:26:16;7.90;99.90
64843;DHT22;51310;52.198;5.422;2023-04-10T06:28:42;8.00;99.90
64843;DHT22;51310;52.198;5.422;2023-04-10T06:31:09;8.00;99.90
64843;DHT22;51310;52.198;5.422;2023-04-10T06:33:35;8.10;99.90
64843;DHT22;51310;52.198;5.422;2023-04-10T06:36:01;8.10;99.90
64843;DHT22;51310;52.198;5.422;2023-04-10T06:38:28;8.20;99.90
64843;DHT22;51310;52.198;5.422;2023-04-10T06:40:54;8.20;99.90
64843;DHT22;51310;52.198;5.422;2023-04-10T06:43:20;8.30;99.90
64843;DHT22;51310;52.198;5.422;2023-04-10T06:45:46;8.30;99.90
64843;DHT22;51310;52.198;5.422;2023-04-10T06:48:12;8.40;99.90
64843;DHT22;51310;52.198;5.422;2023-04-10T06:50:37;8.50;99.90
64843;DHT22;51310;52.198;5.422;2023-04-10T06:53:03;8.50;99.90
64843;DHT22;51310;52.198;5.422;2023-04-10T06:55:29;8.60;99.90
64843;DHT22;51310;52.198;5.422;2023-04-10T06:57:55;8.60;99.90
64843;DHT22;51310;52.198;5.422;2023-04-10T07:00:22;8.70;99.90
64843;DHT22;51310;52.198;5.422;2023-04-10T07:02:48;8.80;99.90
64843;DHT22;51310;52.198;5.422;2023-04-10T07:05:14;8.90;99.00
64843;DHT22;51310;52.198;5.422;2023-04-10T07:07:41;9.00;97.00
64843;DHT22;51310;52.198;5.422;2023-04-10T07:10:07;9.00;92.50
64843;DHT22;51310;52.198;5.422;2023-04-10T07:12:33;9.10;89.90
64843;DHT22;51310;52.198;5.422;2023-04-10T07:14:59;9.20;86.60
64843;DHT22;51310;52.198;5.422;2023-04-10T07:17:25;9.30;83.60
64843;DHT22;51310;52.198;5.422;2023-04-10T07:19:50;9.40;81.70
64843;DHT22;51310;52.198;5.422;2023-04-10T07:22:16;9.40;80.40
64843;DHT22;51310;52.198;5.422;2023-04-10T07:24:42;9.50;80.10
64843;DHT22;51310;52.198;5.422;2023-04-10T07:27:08;9.60;77.50
64843;DHT22;51310;52.198;5.422;2023-04-10T07:29:34;9.70;77.20
64843;DHT22;51310;52.198;5.422;2023-04-10T07:32:00;9.70;76.50
64843;DHT22;51310;52.198;5.422;2023-04-10T07:34:25;9.80;74.30
64843;DHT22;51310;52.198;5.422;2023-04-10T07:36:51;9.90;74.30
64843;DHT22;51310;52.198;5.422;2023-04-10T07:39:17;10.00;73.70
64843;DHT22;51310;52.198;5.422;2023-04-10T07:41:43;10.00;71.50
64843;DHT22;51310;52.198;5.422;2023-04-10T07:44:09;10.10;71.50
64843;DHT22;51310;52.198;5.422;2023-04-10T07:46:35;10.30;70.30
64843;DHT22;51310;52.198;5.422;2023-04-10T07:49:02;10.40;68.10
64843;DHT22;51310;52.198;5.422;2023-04-10T07:51:28;10.70;67.20
64843;DHT22;51310;52.198;5.422;2023-04-10T07:53:54;10.90;65.20
64843;DHT22;51310;52.198;5.422;2023-04-10T07:56:20;11.00;63.70
64843;DHT22;51310;52.198;5.422;2023-04-10T07:58:47;11.10;62.70
64843;DHT22;51310;52.198;5.422;2023-04-10T08:01:14;11.40;61.10
64843;DHT22;51310;52.198;5.422;2023-04-10T08:03:42;11.50;60.90
64843;DHT22;51310;52.198;5.422;2023-04-10T08:06:09;11.70;60.00
64843;DHT22;51310;52.198;5.422;2023-04-10T08:08:39;11.70;59.80
64843;DHT22;51310;52.198;5.422;2023-04-10T08:11:20;11.90;58.40
64843;DHT22;51310;52.198;5.422;2023-04-10T08:13:54;11.90;58.30
64843;DHT22;51310;52.198;5.422;2023-04-10T08:16:25;11.90;57.70
64843;DHT22;51310;52.198;5.422;2023-04-10T08:18:54;11.90;56.80
64843;DHT22;51310;52.198;5.422;2023-04-10T08:21:21;11.80;57.30
64843;DHT22;51310;52.198;5.422;2023-04-10T08:23:56;11.70;57.30
64843;DHT22;51310;52.198;5.422;2023-04-10T08:26:24;11.70;57.80
64843;DHT22;51310;52.198;5.422;2023-04-10T08:28:52;11.80;58.30
64843;DHT22;51310;52.198;5.422;2023-04-10T08:31:21;11.90;57.90
64843;DHT22;51310;52.198;5.422;2023-04-10T08:33:48;12.00;57.10
64843;DHT22;51310;52.198;5.422;2023-04-10T08:36:15;12.10;57.20
64843;DHT22;51310;52.198;5.422;2023-04-10T08:38:41;12.30;56.50
64843;DHT22;51310;52.198;5.422;2023-04-10T08:41:12;12.50;56.30
64843;DHT22;51310;52.198;5.422;2023-04-10T08:43:39;12.50;55.50
64843;DHT22;51310;52.198;5.422;2023-04-10T08:46:05;12.50;55.40
64843;DHT22;51310;52.198;5.422;2023-04-10T08:48:52;12.50;55.10
64843;DHT22;51310;52.198;5.422;2023-04-10T08:51:31;12.50;55.60
64843;DHT22;51310;52.198;5.422;2023-04-10T08:54:06;12.50;55.70
64843;DHT22;51310;52.198;5.422;2023-04-10T08:56:40;12.50;55.40
64843;DHT22;51310;52.198;5.422;2023-04-10T08:59:11;12.50;55.40
64843;DHT22;51310;52.198;5.422;2023-04-10T09:01:38;12.60;55.70
64843;DHT22;51310;52.198;5.422;2023-04-10T09:04:05;12.60;55.70
64843;DHT22;51310;52.198;5.422;2023-04-10T09:06:31;12.60;55.80
64843;DHT22;51310;52.198;5.422;2023-04-10T09:08:57;12.50;55.80
64843;DHT22;51310;52.198;5.422;2023-04-10T09:14:30;12.50;56.10
64843;DHT22;51310;52.198;5.422;2023-04-10T09:19:51;12.50;56.00
64843;DHT22;51310;52.198;5.422;2023-04-10T09:22:35;12.50;56.40
64843;DHT22;51310;52.198;5.422;2023-04-10T09:25:02;12.40;57.00
64843;DHT22;51310;52.198;5.422;2023-04-10T09:27:33;12.50;57.30
64843;DHT22;51310;52.198;5.422;2023-04-10T09:30:02;12.50;57.40
64843;DHT22;51310;52.198;5.422;2023-04-10T09:32:36;12.50;57.40
64843;DHT22;51310;52.198;5.422;2023-04-10T09:35:02;12.50;57.00
64843;DHT22;51310;52.198;5.422;2023-04-10T09:37:32;12.50;57.20
64843;DHT22;51310;52.198;5.422;2023-04-10T09:40:01;12.50;57.30
64843;DHT22;51310;52.198;5.422;2023-04-10T09:42:33;12.60;57.40
64843;DHT22;51310;52.198;5.422;2023-04-10T09:45:01;12.70;57.50
64843;DHT22;51310;52.198;5.422;2023-04-10T09:47:28;12.80;57.40
64843;DHT22;51310;52.198;5.422;2023-04-10T09:49:57;12.80;56.90
64843;DHT22;51310;52.198;5.422;2023-04-10T09:52:32;12.80;56.80
64843;DHT22;51310;52.198;5.422;2023-04-10T09:55:00;12.80;56.70
64843;DHT22;51310;52.198;5.422;2023-04-10T09:57:29;12.80;57.00
64843;DHT22;51310;52.198;5.422;2023-04-10T09:59:58;12.80;56.90
64843;DHT22;51310;52.198;5.422;2023-04-10T10:02:28;12.90;56.50
64843;DHT22;51310;52.198;5.422;2023-04-10T10:04:56;13.10;56.40
64843;DHT22;51310;52.198;5.422;2023-04-10T10:07:26;13.10;55.80
64843;DHT22;51310;52.198;5.422;2023-04-10T10:09:54;13.20;55.90
64843;DHT22;51310;52.198;5.422;2023-04-10T10:12:47;13.30;56.00
64843;DHT22;51310;52.198;5.422;2023-04-10T10:15:30;13.30;55.80
64843;DHT22;51310;52.198;5.422;2023-04-10T10:20:44;13.50;55.10
64843;DHT22;51310;52.198;5.422;2023-04-10T10:23:12;13.60;55.10
64843;DHT22;51310;52.198;5.422;2023-04-10T10:25:40;13.60;55.00
64843;DHT22;51310;52.198;5.422;2023-04-10T10:28:12;13.60;55.20
64843;DHT22;51310;52.198;5.422;2023-04-10T10:30:39;13.70;55.00
64843;DHT22;51310;52.198;5.422;2023-04-10T10:33:06;13.70;54.90
64843;DHT22;51310;52.198;5.422;2023-04-10T10:35:36;13.80;54.60
64843;DHT22;51310;52.198;5.422;2023-04-10T10:38:03;13.90;54.50
64843;DHT22;51310;52.198;5.422;2023-04-10T10:40:50;13.90;54.40
64843;DHT22;51310;52.198;5.422;2023-04-10T10:47:06;14.10;54.30
64843;DHT22;51310;52.198;5.422;2023-04-10T10:49:59;14.20;54.10
64843;DHT22;51310;52.198;5.422;2023-04-10T10:58:07;14.50;53.10
64843;DHT22;51310;52.198;5.422;2023-04-10T11:03:29;14.80;52.00
64843;DHT22;51310;52.198;5.422;2023-04-10T11:06:01;14.90;52.30
64843;DHT22;51310;52.198;5.422;2023-04-10T11:08:38;15.00;52.30
64843;DHT22;51310;52.198;5.422;2023-04-10T11:11:24;15.10;52.10
64843;DHT22;51310;52.198;5.422;2023-04-10T11:16:41;15.40;51.50
64843;DHT22;51310;52.198;5.422;2023-04-10T11:19:09;15.50;51.40
64843;DHT22;51310;52.198;5.422;2023-04-10T11:22:01;15.60;51.10
64843;DHT22;51310;52.198;5.422;2023-04-10T11:24:29;15.70;50.80
64843;DHT22;51310;52.198;5.422;2023-04-10T11:27:38;15.90;50.40
64843;DHT22;51310;52.198;5.422;2023-04-10T11:30:28;16.00;49.80
64843;DHT22;51310;52.198;5.422;2023-04-10T11:32:57;16.20;49.70
64843;DHT22;51310;52.198;5.422;2023-04-10T11:35:25;16.30;49.50
64843;DHT22;51310;52.198;5.422;2023-04-10T11:38:06;16.40;49.60
64843;DHT22;51310;52.198;5.422;2023-04-10T11:40:52;16.50;48.60
64843;DHT22;51310;52.198;5.422;2023-04-10T11:43:29;16.50;48.80
64843;DHT22;51310;52.198;5.422;2023-04-10T11:46:01;16.50;48.60
64843;DHT22;51310;52.198;5.422;2023-04-10T11:48:31;16.60;49.20
64843;DHT22;51310;52.198;5.422;2023-04-10T11:50:58;16.60;48.70
64843;DHT22;51310;52.198;5.422;2023-04-10T11:53:30;16.70;48.40
64843;DHT22;51310;52.198;5.422;2023-04-10T11:55:56;16.60;48.50
64843;DHT22;51310;52.198;5.422;2023-04-10T11:58:27;16.60;48.70
64843;DHT22;51310;52.198;5.422;2023-04-10T12:00:59;16.60;49.30
64843;DHT22;51310;52.198;5.422;2023-04-10T12:03:32;16.70;49.50
64843;DHT22;51310;52.198;5.422;2023-04-10T12:05:58;16.80;48.50
64843;DHT22;51310;52.198;5.422;2023-04-10T12:08:34;16.80;48.60
64843;DHT22;51310;52.198;5.422;2023-04-10T12:11:01;16.90;48.80
64843;DHT22;51310;52.198;5.422;2023-04-10T12:13:28;16.90;49.00
64843;DHT22;51310;52.198;5.422;2023-04-10T12:15:57;16.90;48.60
64843;DHT22;51310;52.198;5.422;2023-04-10T12:18:28;16.90;48.30
64843;DHT22;51310;52.198;5.422;2023-04-10T12:20:56;16.80;48.50
64843;DHT22;51310;52.198;5.422;2023-04-10T12:23:23;16.70;49.00
64843;DHT22;51310;52.198;5.422;2023-04-10T12:25:50;16.60;49.10
64843;DHT22;51310;52.198;5.422;2023-04-10T12:28:18;16.50;49.20
64843;DHT22;51310;52.198;5.422;2023-04-10T12:30:48;16.40;49.70
64843;DHT22;51310;52.198;5.422;2023-04-10T12:33:21;16.40;49.80
64843;DHT22;51310;52.198;5.422;2023-04-10T12:35:49;16.40;50.20
64843;DHT22;51310;52.198;5.422;2023-04-10T12:38:40;16.40;49.80
64843;DHT22;51310;52.198;5.422;2023-04-10T12:41:10;16.40;50.00
64843;DHT22;51310;52.198;5.422;2023-04-10T12:43:38;16.40;50.30
64843;DHT22;51310;52.198;5.422;2023-04-10T12:46:08;16.40;50.20
64843;DHT22;51310;52.198;5.422;2023-04-10T12:48:35;16.40;49.70
64843;DHT22;51310;52.198;5.422;2023-04-10T12:51:01;16.30;49.40
64843;DHT22;51310;52.198;5.422;2023-04-10T12:53:28;16.20;49.70
64843;DHT22;51310;52.198;5.422;2023-04-10T12:56:04;16.20;50.00
64843;DHT22;51310;52.198;5.422;2023-04-10T12:58:33;16.10;49.60
64843;DHT22;51310;52.198;5.422;2023-04-10T13:01:04;16.00;49.70
64843;DHT22;51310;52.198;5.422;2023-04-10T13:03:35;16.00;50.10
64843;DHT22;51310;52.198;5.422;2023-04-10T13:06:05;15.90;50.50
64843;DHT22;51310;52.198;5.422;2023-04-10T13:08:34;15.80;50.70
64843;DHT22;51310;52.198;5.422;2023-04-10T13:11:00;15.80;50.90
64843;DHT22;51310;52.198;5.422;2023-04-10T13:13:28;15.80;50.80
64843;DHT22;51310;52.198;5.422;2023-04-10T13:15:57;15.70;50.70
64843;DHT22;51310;52.198;5.422;2023-04-10T13:18:24;15.60;50.80
64843;DHT22;51310;52.198;5.422;2023-04-10T13:20:50;15.60;50.70
64843;DHT22;51310;52.198;5.422;2023-04-10T13:23:16;15.60;50.70
64843;DHT22;51310;52.198;5.422;2023-04-10T13:25:42;15.60;50.70
64843;DHT22;51310;52.198;5.422;2023-04-10T13:28:08;15.60;50.80
64843;DHT22;51310;52.198;5.422;2023-04-10T13:30:40;15.60;50.50
64843;DHT22;51310;52.198;5.422;2023-04-10T13:33:07;15.60;50.80
64843;DHT22;51310;52.198;5.422;2023-04-10T13:35:33;15.60;51.50
64843;DHT22;51310;52.198;5.422;2023-04-10T13:37:59;15.60;53.10
64843;DHT22;51310;52.198;5.422;2023-04-10T13:40:25;15.70;53.60
64843;DHT22;51310;52.198;5.422;2023-04-10T13:42:51;15.80;53.50
64843;DHT22;51310;52.198;5.422;2023-04-10T13:45:17;15.70;54.20
64843;DHT22;51310;52.198;5.422;2023-04-10T13:47:43;15.60;55.50
64843;DHT22;51310;52.198;5.422;2023-04-10T13:50:09;15.50;56.10
64843;DHT22;51310;52.198;5.422;2023-04-10T13:52:35;15.40;56.30
64843;DHT22;51310;52.198;5.422;2023-04-10T13:55:01;15.30;57.60
64843;DHT22;51310;52.198;5.422;2023-04-10T13:57:26;15.20;58.80
64843;DHT22;51310;52.198;5.422;2023-04-10T13:59:52;15.00;59.70
64843;DHT22;51310;52.198;5.422;2023-04-10T14:02:18;15.00;61.30
64843;DHT22;51310;52.198;5.422;2023-04-10T14:04:44;14.90;62.00
64843;DHT22;51310;52.198;5.422;2023-04-10T14:07:11;14.80;62.20
64843;DHT22;51310;52.198;5.422;2023-04-10T14:09:37;14.80;62.40
64843;DHT22;51310;52.198;5.422;2023-04-10T14:12:03;14.70;62.40
64843;DHT22;51310;52.198;5.422;2023-04-10T14:14:29;14.70;63.40
64843;DHT22;51310;52.198;5.422;2023-04-10T14:16:55;14.70;64.60
64843;DHT22;51310;52.198;5.422;2023-04-10T14:19:21;14.70;64.70
64843;DHT22;51310;52.198;5.422;2023-04-10T14:21:46;14.70;65.30
64843;DHT22;51310;52.198;5.422;2023-04-10T14:24:12;14.60;67.10
64843;DHT22;51310;52.198;5.422;2023-04-10T14:26:38;14.50;70.40
64843;DHT22;51310;52.198;5.422;2023-04-10T14:29:04;14.40;74.60
64843;DHT22;51310;52.198;5.422;2023-04-10T14:31:32;14.20;88.70
64843;DHT22;51310;52.198;5.422;2023-04-10T14:33:57;14.10;99.90
64843;DHT22;51310;52.198;5.422;2023-04-10T14:36:23;13.90;99.90
64843;DHT22;51310;52.198;5.422;2023-04-10T14:38:49;13.80;99.90
64843;DHT22;51310;52.198;5.422;2023-04-10T14:41:14;13.70;99.90
64843;DHT22;51310;52.198;5.422;2023-04-10T14:43:40;13.60;99.90
64843;DHT22;51310;52.198;5.422;2023-04-10T14:46:06;13.50;99.90
64843;DHT22;51310;52.198;5.422;2023-04-10T14:48:32;13.50;99.90
64843;DHT22;51310;52.198;5.422;2023-04-10T14:50:58;13.50;99.90
64843;DHT22;51310;52.198;5.422;2023-04-10T14:53:24;13.50;99.90
64843;DHT22;51310;52.198;5.422;2023-04-10T14:55:49;13.50;99.90
64843;DHT22;51310;52.198;5.422;2023-04-10T14:58:15;13.50;99.90
64843;DHT22;51310;52.198;5.422;2023-04-10T15:00:41;13.40;99.90
64843;DHT22;51310;52.198;5.422;2023-04-10T15:03:08;13.40;99.90
64843;DHT22;51310;52.198;5.422;2023-04-10T15:05:33;13.40;99.90
64843;DHT22;51310;52.198;5.422;2023-04-10T15:07:59;13.40;99.90
64843;DHT22;51310;52.198;5.422;2023-04-10T15:10:27;13.40;99.90
64843;DHT22;51310;52.198;5.422;2023-04-10T15:12:53;13.30;99.90
64843;DHT22;51310;52.198;5.422;2023-04-10T15:15:19;13.30;99.90
64843;DHT22;51310;52.198;5.422;2023-04-10T15:17:44;13.10;99.90
64843;DHT22;51310;52.198;5.422;2023-04-10T15:20:10;13.00;99.90
64843;DHT22;51310;52.198;5.422;2023-04-10T15:22:36;12.90;99.90
64843;DHT22;51310;52.198;5.422;2023-04-10T15:25:02;12.80;99.90
64843;DHT22;51310;52.198;5.422;2023-04-10T15:27:28;12.70;99.90
64843;DHT22;51310;52.198;5.422;2023-04-10T15:29:54;12.60;99.90
64843;DHT22;51310;52.198;5.422;2023-04-10T15:32:19;12.50;99.90
64843;DHT22;51310;52.198;5.422;2023-04-10T15:34:45;12.50;99.90
64843;DHT22;51310;52.198;5.422;2023-04-10T15:37:11;12.40;99.90
64843;DHT22;51310;52.198;5.422;2023-04-10T15:39:36;12.30;99.90
64843;DHT22;51310;52.198;5.422;2023-04-10T15:42:05;12.30;99.90
64843;DHT22;51310;52.198;5.422;2023-04-10T15:44:32;12.20;99.90
64843;DHT22;51310;52.198;5.422;2023-04-10T15:46:58;12.20;99.90
64843;DHT22;51310;52.198;5.422;2023-04-10T15:49:23;12.20;99.90
64843;DHT22;51310;52.198;5.422;2023-04-10T15:51:49;12.20;99.90
64843;DHT22;51310;52.198;5.422;2023-04-10T15:54:15;12.20;99.90
64843;DHT22;51310;52.198;5.422;2023-04-10T15:56:40;12.20;99.90
64843;DHT22;51310;52.198;5.422;2023-04-10T15:59:06;12.20;99.90
64843;DHT22;51310;52.198;5.422;2023-04-10T16:01:32;12.20;99.90
64843;DHT22;51310;52.198;5.422;2023-04-10T16:03:57;12.20;99.90
64843;DHT22;51310;52.198;5.422;2023-04-10T16:06:23;12.20;99.90
64843;DHT22;51310;52.198;5.422;2023-04-10T16:08:50;12.10;99.90
64843;DHT22;51310;52.198;5.422;2023-04-10T16:11:17;12.10;99.90
64843;DHT22;51310;52.198;5.422;2023-04-10T16:13:42;12.10;99.90
64843;DHT22;51310;52.198;5.422;2023-04-10T16:16:13;12.00;99.90
64843;DHT22;51310;52.198;5.422;2023-04-10T16:18:39;12.00;99.90
64843;DHT22;51310;52.198;5.422;2023-04-10T16:21:07;12.00;99.90